sensor_id;sensor_type;location;lat;lon;timestamp;P1;durP1;ratioP1;P2;durP2;ratioP2
21677;SDS011;11000;50.360;7.582;2022-08-19T00:01:11;17.70;;;16.03;;
21677;SDS011;11000;50.360;7.582;2022-08-19T00:03:31;17.87;;;16.10;;
21677;SDS011;11000;50.360;7.582;2022-08-19T00:05:52;17.83;;;16.20;;
21677;SDS011;11000;50.360;7.582;2022-08-19T00:08:12;16.67;;;15.07;;
21677;SDS011;11000;50.360;7.582;2022-08-19T00:10:33;17.03;;;15.20;;
21677;SDS011;11000;50.360;7.582;2022-08-19T00:12:53;16.40;;;14.80;;
21677;SDS011;11000;50.360;7.582;2022-08-19T00:15:15;16.47;;;15.03;;
21677;SDS011;11000;50.360;7.582;2022-08-19T00:17:39;16.83;;;15.17;;
21677;SDS011;11000;50.360;7.582;2022-08-19T00:20:01;17.27;;;15.57;;
21677;SDS011;11000;50.360;7.582;2022-08-19T00:22:22;16.57;;;14.93;;
21677;SDS011;11000;50.360;7.582;2022-08-19T00:24:43;16.73;;;15.20;;
21677;SDS011;11000;50.360;7.582;2022-08-19T00:27:05;16.87;;;15.00;;
21677;SDS011;11000;50.360;7.582;2022-08-19T00:29:25;16.43;;;14.47;;
21677;SDS011;11000;50.360;7.582;2022-08-19T00:31:46;16.40;;;14.80;;
21677;SDS011;11000;50.360;7.582;2022-08-19T00:34:07;16.87;;;15.37;;
21677;SDS011;11000;50.360;7.582;2022-08-19T00:36:27;16.13;;;14.57;;
21677;SDS011;11000;50.360;7.582;2022-08-19T00:38:48;17.23;;;15.50;;
21677;SDS011;11000;50.360;7.582;2022-08-19T00:41:15;16.70;;;15.20;;
21677;SDS011;11000;50.360;7.582;2022-08-19T00:43:37;17.73;;;16.00;;
21677;SDS011;11000;50.360;7.582;2022-08-19T00:45:59;16.60;;;15.00;;
21677;SDS011;11000;50.360;7.582;2022-08-19T00:48:21;16.77;;;15.17;;
21677;SDS011;11000;50.360;7.582;2022-08-19T00:50:43;17.33;;;15.67;;
21677;SDS011;11000;50.360;7.582;2022-08-19T00:53:05;17.67;;;15.63;;
21677;SDS011;11000;50.360;7.582;2022-08-19T00:55:26;16.97;;;15.37;;
21677;SDS011;11000;50.360;7.582;2022-08-19T00:57:53;16.97;;;15.27;;
21677;SDS011;11000;50.360;7.582;2022-08-19T01:00:18;17.00;;;15.40;;
21677;SDS011;11000;50.360;7.582;2022-08-19T01:02:40;17.57;;;15.97;;
21677;SDS011;11000;50.360;7.582;2022-08-19T01:05:03;17.00;;;15.40;;
21677;SDS011;11000;50.360;7.582;2022-08-19T01:07:26;17.53;;;15.77;;
21677;SDS011;11000;50.360;7.582;2022-08-19T01:09:46;18.07;;;16.27;;
21677;SDS011;11000;50.360;7.582;2022-08-19T01:12:07;17.13;;;15.43;;
21677;SDS011;11000;50.360;7.582;2022-08-19T01:14:28;17.77;;;16.07;;
21677;SDS011;11000;50.360;7.582;2022-08-19T01:16:50;16.17;;;14.57;;
21677;SDS011;11000;50.360;7.582;2022-08-19T01:19:18;17.17;;;15.47;;
21677;SDS011;11000;50.360;7.582;2022-08-19T01:21:55;17.83;;;16.03;;
21677;SDS011;11000;50.360;7.582;2022-08-19T01:24:21;16.13;;;14.53;;
21677;SDS011;11000;50.360;7.582;2022-08-19T01:26:42;16.37;;;14.67;;
21677;SDS011;11000;50.360;7.582;2022-08-19T01:29:04;16.73;;;15.03;;
21677;SDS011;11000;50.360;7.582;2022-08-19T01:31:28;16.60;;;15.00;;
21677;SDS011;11000;50.360;7.582;2022-08-19T01:33:52;17.57;;;14.80;;
21677;SDS011;11000;50.360;7.582;2022-08-19T01:36:25;16.40;;;14.70;;
21677;SDS011;11000;50.360;7.582;2022-08-19T01:38:46;15.90;;;14.30;;
21677;SDS011;11000;50.360;7.582;2022-08-19T01:41:09;16.73;;;14.27;;
21677;SDS011;11000;50.360;7.582;2022-08-19T01:43:31;16.43;;;14.83;;
21677;SDS011;11000;50.360;7.582;2022-08-19T01:45:52;16.53;;;14.87;;
21677;SDS011;11000;50.360;7.582;2022-08-19T01:48:14;17.50;;;15.17;;
21677;SDS011;11000;50.360;7.582;2022-08-19T01:50:35;15.40;;;13.80;;
21677;SDS011;11000;50.360;7.582;2022-08-19T01:52:56;16.27;;;14.33;;
21677;SDS011;11000;50.360;7.582;2022-08-19T01:55:19;16.60;;;15.07;;
21677;SDS011;11000;50.360;7.582;2022-08-19T01:57:42;16.47;;;14.87;;
21677;SDS011;11000;50.360;7.582;2022-08-19T02:00:08;16.10;;;14.67;;
21677;SDS011;11000;50.360;7.582;2022-08-19T02:02:31;16.10;;;14.60;;
21677;SDS011;11000;50.360;7.582;2022-08-19T02:04:52;16.63;;;14.93;;
21677;SDS011;11000;50.360;7.582;2022-08-19T02:07:12;16.23;;;14.67;;
21677;SDS011;11000;50.360;7.582;2022-08-19T02:09:33;15.90;;;14.30;;
21677;SDS011;11000;50.360;7.582;2022-08-19T02:11:54;15.93;;;13.93;;
21677;SDS011;11000;50.360;7.582;2022-08-19T02:14:15;15.10;;;13.70;;
21677;SDS011;11000;50.360;7.582;2022-08-19T02:16:35;16.63;;;14.87;;
21677;SDS011;11000;50.360;7.582;2022-08-19T02:18:56;17.20;;;14.90;;
21677;SDS011;11000;50.360;7.582;2022-08-19T02:21:21;15.60;;;14.10;;
21677;SDS011;11000;50.360;7.582;2022-08-19T02:23:43;15.20;;;13.73;;
21677;SDS011;11000;50.360;7.582;2022-08-19T02:26:04;16.70;;;13.33;;
21677;SDS011;11000;50.360;7.582;2022-08-19T02:28:26;14.90;;;13.50;;
21677;SDS011;11000;50.360;7.582;2022-08-19T02:30:46;15.90;;;14.40;;
21677;SDS011;11000;50.360;7.582;2022-08-19T02:33:08;15.67;;;14.17;;
21677;SDS011;11000;50.360;7.582;2022-08-19T02:35:28;15.80;;;14.20;;
21677;SDS011;11000;50.360;7.582;2022-08-19T02:37:49;16.57;;;14.97;;
21677;SDS011;11000;50.360;7.582;2022-08-19T02:40:29;14.87;;;13.47;;
21677;SDS011;11000;50.360;7.582;2022-08-19T02:42:53;16.33;;;13.53;;
21677;SDS011;11000;50.360;7.582;2022-08-19T02:45:14;15.27;;;13.77;;
21677;SDS011;11000;50.360;7.582;2022-08-19T02:47:35;15.20;;;13.60;;
21677;SDS011;11000;50.360;7.582;2022-08-19T02:49:55;16.13;;;14.47;;
21677;SDS011;11000;50.360;7.582;2022-08-19T02:52:16;15.00;;;13.37;;
21677;SDS011;11000;50.360;7.582;2022-08-19T02:54:37;14.67;;;13.27;;
21677;SDS011;11000;50.360;7.582;2022-08-19T02:56:58;14.73;;;12.90;;
21677;SDS011;11000;50.360;7.582;2022-08-19T02:59:20;14.73;;;12.80;;
21677;SDS011;11000;50.360;7.582;2022-08-19T03:01:41;12.67;;;11.50;;
21677;SDS011;11000;50.360;7.582;2022-08-19T03:04:03;14.33;;;12.83;;
21677;SDS011;11000;50.360;7.582;2022-08-19T03:06:25;15.27;;;12.37;;
21677;SDS011;11000;50.360;7.582;2022-08-19T03:08:47;16.87;;;12.63;;
21677;SDS011;11000;50.360;7.582;2022-08-19T03:11:15;13.40;;;12.10;;
21677;SDS011;11000;50.360;7.582;2022-08-19T03:13:38;12.47;;;11.17;;
21677;SDS011;11000;50.360;7.582;2022-08-19T03:15:58;13.93;;;12.60;;
21677;SDS011;11000;50.360;7.582;2022-08-19T03:18:19;13.57;;;12.17;;
21677;SDS011;11000;50.360;7.582;2022-08-19T03:20:41;13.57;;;12.17;;
21677;SDS011;11000;50.360;7.582;2022-08-19T03:23:05;13.67;;;12.30;;
21677;SDS011;11000;50.360;7.582;2022-08-19T03:25:26;14.60;;;13.10;;
21677;SDS011;11000;50.360;7.582;2022-08-19T03:27:46;14.30;;;12.80;;
21677;SDS011;11000;50.360;7.582;2022-08-19T03:30:09;13.53;;;12.10;;
21677;SDS011;11000;50.360;7.582;2022-08-19T03:32:30;13.47;;;12.17;;
21677;SDS011;11000;50.360;7.582;2022-08-19T03:34:51;14.97;;;12.40;;
21677;SDS011;11000;50.360;7.582;2022-08-19T03:37:12;14.47;;;12.97;;
21677;SDS011;11000;50.360;7.582;2022-08-19T03:39:33;14.93;;;13.53;;
21677;SDS011;11000;50.360;7.582;2022-08-19T03:41:56;14.67;;;13.27;;
21677;SDS011;11000;50.360;7.582;2022-08-19T03:44:20;17.77;;;14.47;;
21677;SDS011;11000;50.360;7.582;2022-08-19T03:46:42;16.93;;;14.33;;
21677;SDS011;11000;50.360;7.582;2022-08-19T03:49:03;16.07;;;14.37;;
21677;SDS011;11000;50.360;7.582;2022-08-19T03:51:28;15.93;;;14.27;;
21677;SDS011;11000;50.360;7.582;2022-08-19T03:53:52;16.00;;;14.43;;
21677;SDS011;11000;50.360;7.582;2022-08-19T03:56:14;16.73;;;14.97;;
21677;SDS011;11000;50.360;7.582;2022-08-19T03:58:35;16.00;;;14.43;;
21677;SDS011;11000;50.360;7.582;2022-08-19T04:00:57;15.47;;;13.97;;
21677;SDS011;11000;50.360;7.582;2022-08-19T04:03:18;15.27;;;13.87;;
21677;SDS011;11000;50.360;7.582;2022-08-19T04:05:39;14.93;;;13.43;;
21677;SDS011;11000;50.360;7.582;2022-08-19T04:07:59;16.73;;;14.63;;
21677;SDS011;11000;50.360;7.582;2022-08-19T04:10:20;16.00;;;14.50;;
21677;SDS011;11000;50.360;7.582;2022-08-19T04:12:41;15.47;;;13.97;;
21677;SDS011;11000;50.360;7.582;2022-08-19T04:15:01;16.10;;;14.50;;
21677;SDS011;11000;50.360;7.582;2022-08-19T04:17:25;15.23;;;13.63;;
21677;SDS011;11000;50.360;7.582;2022-08-19T04:19:46;15.30;;;13.80;;
21677;SDS011;11000;50.360;7.582;2022-08-19T04:22:07;15.80;;;14.20;;
21677;SDS011;11000;50.360;7.582;2022-08-19T04:24:27;16.57;;;14.73;;
21677;SDS011;11000;50.360;7.582;2022-08-19T04:26:48;18.67;;;14.77;;
21677;SDS011;11000;50.360;7.582;2022-08-19T04:29:10;15.03;;;13.57;;
21677;SDS011;11000;50.360;7.582;2022-08-19T04:31:36;16.23;;;14.53;;
21677;SDS011;11000;50.360;7.582;2022-08-19T04:33:58;15.83;;;14.13;;
21677;SDS011;11000;50.360;7.582;2022-08-19T04:36:21;16.70;;;14.80;;
21677;SDS011;11000;50.360;7.582;2022-08-19T04:38:43;16.07;;;14.47;;
21677;SDS011;11000;50.360;7.582;2022-08-19T04:41:04;16.50;;;14.97;;
21677;SDS011;11000;50.360;7.582;2022-08-19T04:43:44;16.47;;;13.93;;
21677;SDS011;11000;50.360;7.582;2022-08-19T04:46:09;16.00;;;14.33;;
21677;SDS011;11000;50.360;7.582;2022-08-19T04:48:31;15.43;;;13.93;;
21677;SDS011;11000;50.360;7.582;2022-08-19T04:50:53;16.27;;;14.70;;
21677;SDS011;11000;50.360;7.582;2022-08-19T04:53:17;16.37;;;14.33;;
21677;SDS011;11000;50.360;7.582;2022-08-19T04:55:38;16.53;;;14.57;;
21677;SDS011;11000;50.360;7.582;2022-08-19T04:58:01;16.00;;;14.17;;
21677;SDS011;11000;50.360;7.582;2022-08-19T05:00:22;17.87;;;15.90;;
21677;SDS011;11000;50.360;7.582;2022-08-19T05:02:43;15.90;;;14.33;;
21677;SDS011;11000;50.360;7.582;2022-08-19T05:05:04;15.73;;;14.23;;
21677;SDS011;11000;50.360;7.582;2022-08-19T05:07:26;16.60;;;14.90;;
21677;SDS011;11000;50.360;7.582;2022-08-19T05:09:47;16.17;;;14.60;;
21677;SDS011;11000;50.360;7.582;2022-08-19T05:12:08;16.50;;;14.80;;
21677;SDS011;11000;50.360;7.582;2022-08-19T05:14:28;16.43;;;14.93;;
21677;SDS011;11000;50.360;7.582;2022-08-19T05:16:49;17.60;;;15.80;;
21677;SDS011;11000;50.360;7.582;2022-08-19T05:19:09;16.30;;;14.77;;
21677;SDS011;11000;50.360;7.582;2022-08-19T05:21:48;16.73;;;15.00;;
21677;SDS011;11000;50.360;7.582;2022-08-19T05:24:27;16.93;;;14.27;;
21677;SDS011;11000;50.360;7.582;2022-08-19T05:26:50;16.90;;;15.10;;
21677;SDS011;11000;50.360;7.582;2022-08-19T05:29:12;17.03;;;15.50;;
21677;SDS011;11000;50.360;7.582;2022-08-19T05:31:35;17.20;;;15.40;;
21677;SDS011;11000;50.360;7.582;2022-08-19T05:33:56;17.90;;;16.17;;
21677;SDS011;11000;50.360;7.582;2022-08-19T05:36:18;16.67;;;15.07;;
21677;SDS011;11000;50.360;7.582;2022-08-19T05:38:39;15.90;;;14.40;;
21677;SDS011;11000;50.360;7.582;2022-08-19T05:41:00;17.50;;;15.67;;
21677;SDS011;11000;50.360;7.582;2022-08-19T05:43:26;16.93;;;15.23;;
21677;SDS011;11000;50.360;7.582;2022-08-19T05:45:46;16.10;;;14.50;;
21677;SDS011;11000;50.360;7.582;2022-08-19T05:48:08;20.20;;;15.00;;
21677;SDS011;11000;50.360;7.582;2022-08-19T05:50:32;16.10;;;14.50;;
21677;SDS011;11000;50.360;7.582;2022-08-19T05:52:52;17.87;;;14.30;;
21677;SDS011;11000;50.360;7.582;2022-08-19T05:55:13;16.60;;;14.93;;
21677;SDS011;11000;50.360;7.582;2022-08-19T05:57:33;17.10;;;15.27;;
21677;SDS011;11000;50.360;7.582;2022-08-19T05:59:54;17.37;;;15.57;;
21677;SDS011;11000;50.360;7.582;2022-08-19T06:02:15;17.27;;;15.10;;
21677;SDS011;11000;50.360;7.582;2022-08-19T06:04:36;16.80;;;14.93;;
21677;SDS011;11000;50.360;7.582;2022-08-19T06:06:57;16.03;;;14.37;;
21677;SDS011;11000;50.360;7.582;2022-08-19T06:09:18;16.47;;;14.70;;
21677;SDS011;11000;50.360;7.582;2022-08-19T06:11:43;17.43;;;13.67;;
21677;SDS011;11000;50.360;7.582;2022-08-19T06:14:09;16.77;;;14.30;;
21677;SDS011;11000;50.360;7.582;2022-08-19T06:16:32;16.80;;;14.03;;
21677;SDS011;11000;50.360;7.582;2022-08-19T06:18:55;18.13;;;15.00;;
21677;SDS011;11000;50.360;7.582;2022-08-19T06:21:21;15.00;;;13.50;;
21677;SDS011;11000;50.360;7.582;2022-08-19T06:23:42;16.80;;;13.50;;
21677;SDS011;11000;50.360;7.582;2022-08-19T06:26:03;17.40;;;14.20;;
21677;SDS011;11000;50.360;7.582;2022-08-19T06:28:24;15.37;;;13.80;;
21677;SDS011;11000;50.360;7.582;2022-08-19T06:30:45;16.10;;;13.70;;
21677;SDS011;11000;50.360;7.582;2022-08-19T06:33:05;17.10;;;14.90;;
21677;SDS011;11000;50.360;7.582;2022-08-19T06:35:26;15.53;;;13.93;;
21677;SDS011;11000;50.360;7.582;2022-08-19T06:37:46;16.37;;;14.00;;
21677;SDS011;11000;50.360;7.582;2022-08-19T06:40:07;16.43;;;14.67;;
21677;SDS011;11000;50.360;7.582;2022-08-19T06:42:28;18.77;;;15.20;;
21677;SDS011;11000;50.360;7.582;2022-08-19T06:44:50;17.50;;;15.60;;
21677;SDS011;11000;50.360;7.582;2022-08-19T06:47:14;15.73;;;14.10;;
21677;SDS011;11000;50.360;7.582;2022-08-19T06:49:40;16.17;;;14.57;;
21677;SDS011;11000;50.360;7.582;2022-08-19T06:52:01;16.20;;;14.53;;
21677;SDS011;11000;50.360;7.582;2022-08-19T06:54:22;17.57;;;14.60;;
21677;SDS011;11000;50.360;7.582;2022-08-19T06:56:43;17.37;;;15.40;;
21677;SDS011;11000;50.360;7.582;2022-08-19T06:59:15;15.67;;;14.13;;
21677;SDS011;11000;50.360;7.582;2022-08-19T07:01:43;16.43;;;14.63;;
21677;SDS011;11000;50.360;7.582;2022-08-19T07:04:07;17.60;;;14.63;;
21677;SDS011;11000;50.360;7.582;2022-08-19T07:06:29;16.93;;;15.13;;
21677;SDS011;11000;50.360;7.582;2022-08-19T07:08:51;16.87;;;14.53;;
21677;SDS011;11000;50.360;7.582;2022-08-19T07:11:16;16.47;;;14.73;;
21677;SDS011;11000;50.360;7.582;2022-08-19T07:13:38;18.67;;;16.87;;
21677;SDS011;11000;50.360;7.582;2022-08-19T07:16:02;17.77;;;15.97;;
21677;SDS011;11000;50.360;7.582;2022-08-19T07:18:30;21.70;;;18.33;;
21677;SDS011;11000;50.360;7.582;2022-08-19T07:20:51;20.03;;;15.17;;
21677;SDS011;11000;50.360;7.582;2022-08-19T07:23:25;19.60;;;17.07;;
21677;SDS011;11000;50.360;7.582;2022-08-19T07:25:45;17.43;;;15.60;;
21677;SDS011;11000;50.360;7.582;2022-08-19T07:28:09;19.17;;;17.07;;
21677;SDS011;11000;50.360;7.582;2022-08-19T07:30:30;19.00;;;16.37;;
21677;SDS011;11000;50.360;7.582;2022-08-19T07:32:51;20.87;;;16.17;;
21677;SDS011;11000;50.360;7.582;2022-08-19T07:35:12;19.37;;;17.37;;
21677;SDS011;11000;50.360;7.582;2022-08-19T07:37:32;21.07;;;17.30;;
21677;SDS011;11000;50.360;7.582;2022-08-19T07:39:55;18.53;;;16.47;;
21677;SDS011;11000;50.360;7.582;2022-08-19T07:42:15;22.73;;;18.87;;
21677;SDS011;11000;50.360;7.582;2022-08-19T07:44:37;24.93;;;19.33;;
21677;SDS011;11000;50.360;7.582;2022-08-19T07:46:58;20.83;;;18.37;;
21677;SDS011;11000;50.360;7.582;2022-08-19T07:49:20;22.93;;;19.63;;
21677;SDS011;11000;50.360;7.582;2022-08-19T07:51:41;23.13;;;17.67;;
21677;SDS011;11000;50.360;7.582;2022-08-19T07:54:01;25.70;;;20.97;;
21677;SDS011;11000;50.360;7.582;2022-08-19T07:56:22;25.27;;;21.03;;
21677;SDS011;11000;50.360;7.582;2022-08-19T07:58:44;25.17;;;21.93;;
21677;SDS011;11000;50.360;7.582;2022-08-19T08:01:07;25.47;;;21.70;;
21677;SDS011;11000;50.360;7.582;2022-08-19T08:03:30;25.40;;;21.77;;
21677;SDS011;11000;50.360;7.582;2022-08-19T08:06:09;29.53;;;23.10;;
21677;SDS011;11000;50.360;7.582;2022-08-19T08:08:49;28.03;;;22.57;;
21677;SDS011;11000;50.360;7.582;2022-08-19T08:11:28;29.70;;;21.53;;
21677;SDS011;11000;50.360;7.582;2022-08-19T08:13:49;27.63;;;22.23;;
21677;SDS011;11000;50.360;7.582;2022-08-19T08:16:09;28.13;;;22.20;;
21677;SDS011;11000;50.360;7.582;2022-08-19T08:18:30;26.50;;;22.10;;
21677;SDS011;11000;50.360;7.582;2022-08-19T08:20:51;24.43;;;20.20;;
21677;SDS011;11000;50.360;7.582;2022-08-19T08:23:12;27.47;;;21.30;;
21677;SDS011;11000;50.360;7.582;2022-08-19T08:25:49;24.70;;;19.93;;
21677;SDS011;11000;50.360;7.582;2022-08-19T08:28:10;24.90;;;19.67;;
21677;SDS011;11000;50.360;7.582;2022-08-19T08:30:30;23.03;;;20.07;;
21677;SDS011;11000;50.360;7.582;2022-08-19T08:32:53;21.43;;;18.17;;
21677;SDS011;11000;50.360;7.582;2022-08-19T08:35:15;22.57;;;20.13;;
21677;SDS011;11000;50.360;7.582;2022-08-19T08:37:37;22.50;;;18.77;;
21677;SDS011;11000;50.360;7.582;2022-08-19T08:39:58;25.00;;;19.23;;
21677;SDS011;11000;50.360;7.582;2022-08-19T08:42:24;23.73;;;20.67;;
21677;SDS011;11000;50.360;7.582;2022-08-19T08:47:23;21.93;;;19.03;;
21677;SDS011;11000;50.360;7.582;2022-08-19T08:49:51;23.30;;;17.90;;
21677;SDS011;11000;50.360;7.582;2022-08-19T08:52:18;23.10;;;18.80;;
21677;SDS011;11000;50.360;7.582;2022-08-19T08:54:47;24.83;;;18.80;;
21677;SDS011;11000;50.360;7.582;2022-08-19T08:57:12;24.93;;;19.30;;
21677;SDS011;11000;50.360;7.582;2022-08-19T08:59:39;21.90;;;17.57;;
21677;SDS011;11000;50.360;7.582;2022-08-19T09:02:02;19.63;;;16.27;;
21677;SDS011;11000;50.360;7.582;2022-08-19T09:04:23;20.50;;;17.80;;
21677;SDS011;11000;50.360;7.582;2022-08-19T09:06:59;20.90;;;17.20;;
21677;SDS011;11000;50.360;7.582;2022-08-19T09:09:32;20.13;;;17.50;;
21677;SDS011;11000;50.360;7.582;2022-08-19T09:15:03;21.40;;;15.77;;
21677;SDS011;11000;50.360;7.582;2022-08-19T09:17:28;21.17;;;16.17;;
21677;SDS011;11000;50.360;7.582;2022-08-19T09:19:52;16.67;;;14.87;;
21677;SDS011;11000;50.360;7.582;2022-08-19T09:22:15;17.47;;;14.43;;
21677;SDS011;11000;50.360;7.582;2022-08-19T09:24:36;16.73;;;14.93;;
21677;SDS011;11000;50.360;7.582;2022-08-19T09:26:56;14.83;;;13.30;;
21677;SDS011;11000;50.360;7.582;2022-08-19T09:29:17;13.63;;;12.03;;
21677;SDS011;11000;50.360;7.582;2022-08-19T09:31:38;17.97;;;14.40;;
21677;SDS011;11000;50.360;7.582;2022-08-19T09:33:59;14.40;;;11.53;;
21677;SDS011;11000;50.360;7.582;2022-08-19T09:36:20;12.70;;;10.30;;
21677;SDS011;11000;50.360;7.582;2022-08-19T09:38:42;12.70;;;10.10;;
21677;SDS011;11000;50.360;7.582;2022-08-19T09:41:09;11.13;;;10.03;;
21677;SDS011;11000;50.360;7.582;2022-08-19T09:43:34;17.73;;;11.50;;
21677;SDS011;11000;50.360;7.582;2022-08-19T09:45:56;11.13;;;9.80;;
21677;SDS011;11000;50.360;7.582;2022-08-19T09:48:17;13.90;;;10.93;;
21677;SDS011;11000;50.360;7.582;2022-08-19T09:50:38;14.13;;;10.20;;
21677;SDS011;11000;50.360;7.582;2022-08-19T09:52:59;10.87;;;9.77;;
21677;SDS011;11000;50.360;7.582;2022-08-19T09:55:19;9.33;;;8.33;;
21677;SDS011;11000;50.360;7.582;2022-08-19T09:57:40;11.07;;;8.67;;
21677;SDS011;11000;50.360;7.582;2022-08-19T10:00:02;9.63;;;8.63;;
21677;SDS011;11000;50.360;7.582;2022-08-19T10:02:24;8.67;;;7.87;;
21677;SDS011;11000;50.360;7.582;2022-08-19T10:04:45;9.97;;;9.07;;
21677;SDS011;11000;50.360;7.582;2022-08-19T10:07:24;8.40;;;7.53;;
21677;SDS011;11000;50.360;7.582;2022-08-19T10:09:45;7.80;;;7.10;;
21677;SDS011;11000;50.360;7.582;2022-08-19T10:12:07;9.90;;;8.27;;
21677;SDS011;11000;50.360;7.582;2022-08-19T10:14:29;8.93;;;8.03;;
21677;SDS011;11000;50.360;7.582;2022-08-19T10:16:50;9.80;;;7.27;;
21677;SDS011;11000;50.360;7.582;2022-08-19T10:19:13;9.00;;;8.20;;
21677;SDS011;11000;50.360;7.582;2022-08-19T10:21:34;8.00;;;7.30;;
21677;SDS011;11000;50.360;7.582;2022-08-19T10:23:57;8.13;;;7.43;;
21677;SDS011;11000;50.360;7.582;2022-08-19T10:26:21;8.50;;;7.53;;
21677;SDS011;11000;50.360;7.582;2022-08-19T10:28:43;10.17;;;8.33;;
21677;SDS011;11000;50.360;7.582;2022-08-19T10:31:05;9.43;;;8.63;;
21677;SDS011;11000;50.360;7.582;2022-08-19T10:33:27;7.73;;;7.07;;
21677;SDS011;11000;50.360;7.582;2022-08-19T10:35:48;8.50;;;7.63;;
21677;SDS011;11000;50.360;7.582;2022-08-19T10:38:19;7.70;;;7.00;;
21677;SDS011;11000;50.360;7.582;2022-08-19T10:40:41;7.83;;;7.23;;
21677;SDS011;11000;50.360;7.582;2022-08-19T10:43:02;9.53;;;8.50;;
21677;SDS011;11000;50.360;7.582;2022-08-19T10:45:23;7.70;;;7.00;;
21677;SDS011;11000;50.360;7.582;2022-08-19T10:47:45;8.83;;;8.00;;
21677;SDS011;11000;50.360;7.582;2022-08-19T10:50:06;8.90;;;8.07;;
21677;SDS011;11000;50.360;7.582;2022-08-19T10:52:46;9.13;;;7.83;;
21677;SDS011;11000;50.360;7.582;2022-08-19T10:55:09;7.40;;;6.70;;
21677;SDS011;11000;50.360;7.582;2022-08-19T10:57:48;8.23;;;7.43;;
21677;SDS011;11000;50.360;7.582;2022-08-19T11:00:09;12.93;;;6.93;;
21677;SDS011;11000;50.360;7.582;2022-08-19T11:02:30;8.40;;;7.60;;
21677;SDS011;11000;50.360;7.582;2022-08-19T11:04:52;7.90;;;7.13;;
21677;SDS011;11000;50.360;7.582;2022-08-19T11:07:13;9.03;;;7.47;;
21677;SDS011;11000;50.360;7.582;2022-08-19T11:09:37;8.83;;;7.60;;
21677;SDS011;11000;50.360;7.582;2022-08-19T11:12:00;8.83;;;7.50;;
21677;SDS011;11000;50.360;7.582;2022-08-19T11:14:21;10.57;;;8.93;;
21677;SDS011;11000;50.360;7.582;2022-08-19T11:16:42;8.07;;;7.27;;
21677;SDS011;11000;50.360;7.582;2022-08-19T11:19:02;9.40;;;6.77;;
21677;SDS011;11000;50.360;7.582;2022-08-19T11:21:25;7.27;;;6.60;;
21677;SDS011;11000;50.360;7.582;2022-08-19T11:23:58;6.03;;;5.53;;
21677;SDS011;11000;50.360;7.582;2022-08-19T11:26:25;9.47;;;6.30;;
21677;SDS011;11000;50.360;7.582;2022-08-19T11:28:51;7.27;;;6.50;;
21677;SDS011;11000;50.360;7.582;2022-08-19T11:31:17;8.20;;;7.33;;
21677;SDS011;11000;50.360;7.582;2022-08-19T11:33:39;6.60;;;6.00;;
21677;SDS011;11000;50.360;7.582;2022-08-19T11:36:00;7.23;;;6.60;;
21677;SDS011;11000;50.360;7.582;2022-08-19T11:38:21;8.40;;;7.70;;
21677;SDS011;11000;50.360;7.582;2022-08-19T11:40:42;9.27;;;6.77;;
21677;SDS011;11000;50.360;7.582;2022-08-19T11:43:02;8.40;;;7.57;;
21677;SDS011;11000;50.360;7.582;2022-08-19T11:45:25;7.13;;;6.53;;
21677;SDS011;11000;50.360;7.582;2022-08-19T11:47:47;7.93;;;6.50;;
21677;SDS011;11000;50.360;7.582;2022-08-19T11:50:17;9.13;;;6.70;;
21677;SDS011;11000;50.360;7.582;2022-08-19T11:52:41;6.20;;;5.53;;
21677;SDS011;11000;50.360;7.582;2022-08-19T11:55:04;7.00;;;6.50;;
21677;SDS011;11000;50.360;7.582;2022-08-19T11:57:25;6.30;;;5.43;;
21677;SDS011;11000;50.360;7.582;2022-08-19T11:59:50;7.07;;;6.27;;
21677;SDS011;11000;50.360;7.582;2022-08-19T12:02:12;5.80;;;5.30;;
21677;SDS011;11000;50.360;7.582;2022-08-19T12:04:35;6.27;;;5.60;;
21677;SDS011;11000;50.360;7.582;2022-08-19T12:06:55;5.57;;;5.07;;
21677;SDS011;11000;50.360;7.582;2022-08-19T12:09:16;5.90;;;5.03;;
21677;SDS011;11000;50.360;7.582;2022-08-19T12:11:37;6.20;;;5.50;;
21677;SDS011;11000;50.360;7.582;2022-08-19T12:13:59;6.90;;;5.50;;
21677;SDS011;11000;50.360;7.582;2022-08-19T12:16:21;7.43;;;6.77;;
21677;SDS011;11000;50.360;7.582;2022-08-19T12:18:45;7.90;;;7.10;;
21677;SDS011;11000;50.360;7.582;2022-08-19T12:21:06;7.33;;;6.03;;
21677;SDS011;11000;50.360;7.582;2022-08-19T12:23:27;6.07;;;5.47;;
21677;SDS011;11000;50.360;7.582;2022-08-19T12:25:48;5.73;;;5.33;;
21677;SDS011;11000;50.360;7.582;2022-08-19T12:28:12;6.47;;;5.83;;
21677;SDS011;11000;50.360;7.582;2022-08-19T12:30:33;6.00;;;5.40;;
21677;SDS011;11000;50.360;7.582;2022-08-19T12:32:57;13.13;;;6.67;;
21677;SDS011;11000;50.360;7.582;2022-08-19T12:35:17;6.90;;;5.80;;
21677;SDS011;11000;50.360;7.582;2022-08-19T12:37:40;7.33;;;6.20;;
21677;SDS011;11000;50.360;7.582;2022-08-19T12:40:04;7.17;;;6.57;;
21677;SDS011;11000;50.360;7.582;2022-08-19T12:42:25;6.30;;;5.53;;
21677;SDS011;11000;50.360;7.582;2022-08-19T12:44:46;6.87;;;6.10;;
21677;SDS011;11000;50.360;7.582;2022-08-19T12:47:07;6.47;;;5.60;;
21677;SDS011;11000;50.360;7.582;2022-08-19T12:49:30;7.13;;;5.83;;
21677;SDS011;11000;50.360;7.582;2022-08-19T12:51:53;7.07;;;6.47;;
21677;SDS011;11000;50.360;7.582;2022-08-19T12:54:14;7.07;;;6.33;;
21677;SDS011;11000;50.360;7.582;2022-08-19T12:56:36;7.27;;;6.47;;
21677;SDS011;11000;50.360;7.582;2022-08-19T12:58:56;6.30;;;5.77;;
21677;SDS011;11000;50.360;7.582;2022-08-19T13:01:17;6.23;;;5.83;;
21677;SDS011;11000;50.360;7.582;2022-08-19T13:03:38;6.60;;;6.00;;
21677;SDS011;11000;50.360;7.582;2022-08-19T13:05:59;6.80;;;6.30;;
21677;SDS011;11000;50.360;7.582;2022-08-19T13:08:19;6.60;;;6.10;;
21677;SDS011;11000;50.360;7.582;2022-08-19T13:10:40;7.80;;;7.00;;
21677;SDS011;11000;50.360;7.582;2022-08-19T13:13:02;6.77;;;6.27;;
21677;SDS011;11000;50.360;7.582;2022-08-19T13:15:26;7.60;;;6.90;;
21677;SDS011;11000;50.360;7.582;2022-08-19T13:17:48;7.63;;;6.90;;
21677;SDS011;11000;50.360;7.582;2022-08-19T13:20:11;6.83;;;6.20;;
21677;SDS011;11000;50.360;7.582;2022-08-19T13:22:36;6.83;;;6.33;;
21677;SDS011;11000;50.360;7.582;2022-08-19T13:24:57;6.40;;;5.80;;
21677;SDS011;11000;50.360;7.582;2022-08-19T13:27:18;7.07;;;5.90;;
21677;SDS011;11000;50.360;7.582;2022-08-19T13:29:40;5.73;;;5.23;;
21677;SDS011;11000;50.360;7.582;2022-08-19T13:32:21;7.30;;;5.80;;
21677;SDS011;11000;50.360;7.582;2022-08-19T13:35:00;8.03;;;5.60;;
21677;SDS011;11000;50.360;7.582;2022-08-19T13:37:21;6.83;;;6.07;;
21677;SDS011;11000;50.360;7.582;2022-08-19T13:40:00;5.63;;;5.23;;
21677;SDS011;11000;50.360;7.582;2022-08-19T13:42:22;6.33;;;5.33;;
21677;SDS011;11000;50.360;7.582;2022-08-19T13:44:44;6.47;;;5.87;;
21677;SDS011;11000;50.360;7.582;2022-08-19T13:47:07;5.87;;;5.37;;
21677;SDS011;11000;50.360;7.582;2022-08-19T13:49:29;5.90;;;5.37;;
21677;SDS011;11000;50.360;7.582;2022-08-19T13:51:51;6.13;;;5.30;;
21677;SDS011;11000;50.360;7.582;2022-08-19T13:54:11;7.70;;;5.60;;
21677;SDS011;11000;50.360;7.582;2022-08-19T13:56:32;5.70;;;5.20;;
21677;SDS011;11000;50.360;7.582;2022-08-19T13:58:53;5.80;;;5.20;;
21677;SDS011;11000;50.360;7.582;2022-08-19T14:01:18;5.43;;;5.03;;
21677;SDS011;11000;50.360;7.582;2022-08-19T14:03:40;5.67;;;5.17;;
21677;SDS011;11000;50.360;7.582;2022-08-19T14:06:00;6.13;;;5.53;;
21677;SDS011;11000;50.360;7.582;2022-08-19T14:08:24;6.10;;;5.20;;